createdAt,value
2023-03-29T00:02:11.220Z,6.40
2023-03-29T00:04:39.027Z,6.30
2023-03-29T00:07:05.911Z,6.30
2023-03-29T00:09:33.573Z,6.30
2023-03-29T00:12:01.397Z,6.40
2023-03-29T00:14:30.465Z,6.40
2023-03-29T00:16:58.020Z,6.40
2023-03-29T00:19:24.766Z,6.40
2023-03-29T00:21:51.437Z,6.40
2023-03-29T00:24:18.059Z,6.40
2023-03-29T00:26:44.701Z,6.40
2023-03-29T00:29:11.496Z,6.40
2023-03-29T00:31:38.276Z,6.30
2023-03-29T00:34:05.047Z,6.30
2023-03-29T00:36:31.715Z,6.20
2023-03-29T00:38:58.418Z,6.30
2023-03-29T00:41:26.001Z,6.20
2023-03-29T00:43:59.368Z,6.30
2023-03-29T00:46:28.198Z,6.30
2023-03-29T00:49:03.834Z,6.20
2023-03-29T00:51:34.775Z,6.20
2023-03-29T00:54:04.889Z,6.20
2023-03-29T00:56:37.165Z,6.30
2023-03-29T00:59:10.027Z,6.30
2023-03-29T01:01:45.294Z,6.30
2023-03-29T01:04:18.502Z,6.30
2023-03-29T01:06:57.325Z,6.30
2023-03-29T01:09:27.175Z,6.30
2023-03-29T01:12:01.084Z,6.30
2023-03-29T01:14:37.678Z,6.40
2023-03-29T01:17:04.681Z,6.40
2023-03-29T01:19:59.611Z,6.50
2023-03-29T01:22:51.405Z,6.50
2023-03-29T01:25:37.377Z,6.50
2023-03-29T01:28:10.134Z,6.50
2023-03-29T01:30:43.711Z,6.50
2023-03-29T01:33:14.712Z,6.60
2023-03-29T01:35:45.677Z,6.60
2023-03-29T01:38:27.853Z,6.70
2023-03-29T01:40:54.580Z,6.70
2023-03-29T01:43:24.014Z,6.80
2023-03-29T01:45:53.674Z,6.80
2023-03-29T01:48:29.237Z,6.80
2023-03-29T01:51:04.375Z,6.80
2023-03-29T01:53:51.524Z,6.80
2023-03-29T01:56:22.948Z,6.90
2023-03-29T01:58:53.887Z,6.90
